createdAt,value
2019-03-19T00:00:22.353Z,5.20
2019-03-19T00:03:02.823Z,5.10
2019-03-19T00:05:49.563Z,4.90
2019-03-19T00:08:32.251Z,4.90
2019-03-19T00:11:12.174Z,4.90
2019-03-19T00:13:51.987Z,4.90
2019-03-19T00:16:32.126Z,4.80
2019-03-19T00:19:11.849Z,4.70
2019-03-19T00:21:53.314Z,4.70
2019-03-19T00:24:32.965Z,4.60
2019-03-19T00:27:13.248Z,4.60
2019-03-19T00:29:53.115Z,4.50
2019-03-19T00:32:33.323Z,4.50
2019-03-19T00:35:13.277Z,4.40
2019-03-19T00:37:53.360Z,4.30
2019-03-19T00:40:33.240Z,4.30
2019-03-19T00:43:15.239Z,4.30
2019-03-19T00:45:55.336Z,4.30
2019-03-19T00:48:35.176Z,4.30
2019-03-19T00:51:15.042Z,4.30
2019-03-19T00:53:54.785Z,4.30
2019-03-19T00:56:34.415Z,4.30
2019-03-19T00:59:14.031Z,4.30
2019-03-19T01:01:53.794Z,4.30
2019-03-19T01:04:37.724Z,4.20
2019-03-19T01:07:17.568Z,4.20
2019-03-19T01:09:57.255Z,4.10
2019-03-19T01:12:37.287Z,4.10
2019-03-19T01:15:17.747Z,4.10
2019-03-19T01:18:00.096Z,4.00
2019-03-19T01:20:39.900Z,4.00
2019-03-19T01:23:19.764Z,4.00
2019-03-19T01:25:59.681Z,4.00
2019-03-19T01:28:39.071Z,4.00
2019-03-19T01:31:18.850Z,4.00
2019-03-19T01:33:59.065Z,4.10
2019-03-19T01:36:38.714Z,4.00
2019-03-19T01:39:17.824Z,3.90
2019-03-19T01:41:57.402Z,3.90
2019-03-19T01:44:37.061Z,3.80
2019-03-19T01:47:17.059Z,3.80
2019-03-19T01:49:57.639Z,3.80
2019-03-19T01:52:37.268Z,3.80
2019-03-19T01:55:17.100Z,3.80
2019-03-19T01:57:57.679Z,3.90
2019-03-19T02:00:37.497Z,3.90
2019-03-19T02:03:18.399Z,3.90
2019-03-19T02:05:58.327Z,3.90
2019-03-19T02:08:37.987Z,4.00
2019-03-19T02:11:18.181Z,4.10
2019-03-19T02:13:57.438Z,4.10
2019-03-19T02:16:39.361Z,4.10
2019-03-19T02:19:20.481Z,4.10
2019-03-19T02:21:59.843Z,4.10
2019-03-19T02:24:41.099Z,4.00
2019-03-19T02:27:20.971Z,4.00
2019-03-19T02:30:05.023Z,4.00
2019-03-19T02:32:50.874Z,4.00
2019-03-19T02:35:30.567Z,4.10
2019-03-19T02:38:10.817Z,4.20
2019-03-19T02:40:50.993Z,4.30
2019-03-19T02:43:33.888Z,4.30
2019-03-19T02:46:13.521Z,4.20
2019-03-19T02:48:53.448Z,4.20
2019-03-19T02:51:33.537Z,4.20
2019-03-19T02:54:13.540Z,4.20
2019-03-19T02:56:53.420Z,4.10
2019-03-19T02:59:33.229Z,4.10
2019-03-19T03:02:15.753Z,4.00
2019-03-19T03:04:55.457Z,4.00
2019-03-19T03:07:35.396Z,4.00
2019-03-19T03:10:16.965Z,4.00
2019-03-19T03:12:56.362Z,4.00
2019-03-19T03:15:36.195Z,4.00
2019-03-19T03:18:16.949Z,3.90
2019-03-19T03:20:56.709Z,3.90
2019-03-19T03:23:35.885Z,3.80
2019-03-19T03:26:18.015Z,3.80
2019-03-19T03:28:57.189Z,3.90
2019-03-19T03:31:36.692Z,3.80
2019-03-19T03:34:16.631Z,3.70
2019-03-19T03:36:56.209Z,3.70
2019-03-19T03:39:36.287Z,3.70
2019-03-19T03:42:16.180Z,3.70
2019-03-19T03:44:55.976Z,3.80
2019-03-19T03:47:35.867Z,3.90
2019-03-19T03:50:15.858Z,4.00
2019-03-19T03:52:55.797Z,4.10
2019-03-19T03:55:35.537Z,4.00
2019-03-19T03:58:15.548Z,4.00
2019-03-19T04:00:56.511Z,4.00
2019-03-19T04:03:36.489Z,4.00
2019-03-19T04:06:16.493Z,4.00
2019-03-19T04:08:56.415Z,4.10
2019-03-19T04:11:36.254Z,4.10
2019-03-19T04:14:16.507Z,4.00
2019-03-19T04:16:56.349Z,4.00
2019-03-19T04:19:36.311Z,4.10
2019-03-19T04:22:16.842Z,4.10
2019-03-19T04:24:56.676Z,4.00
2019-03-19T04:27:40.277Z,4.00
2019-03-19T04:30:20.652Z,3.90
2019-03-19T04:33:00.652Z,3.90
2019-03-19T04:35:43.780Z,3.90
2019-03-19T04:38:23.662Z,3.90
2019-03-19T04:41:06.483Z,3.90
2019-03-19T04:43:46.370Z,3.80
2019-03-19T04:46:25.497Z,3.80
2019-03-19T04:49:05.602Z,3.70
2019-03-19T04:51:45.341Z,3.70
2019-03-19T04:54:24.742Z,3.70
2019-03-19T04:57:04.673Z,3.70
2019-03-19T04:59:44.374Z,3.60
2019-03-19T05:02:24.390Z,3.70
2019-03-19T05:05:04.421Z,3.60
2019-03-19T05:07:44.205Z,3.60
2019-03-19T05:10:24.433Z,3.50
2019-03-19T05:13:05.868Z,3.40
2019-03-19T05:15:45.120Z,3.30
2019-03-19T05:18:24.195Z,3.20
2019-03-19T05:21:03.270Z,3.20
2019-03-19T05:23:42.488Z,3.30
2019-03-19T05:26:21.653Z,3.20
2019-03-19T05:29:00.708Z,3.20
2019-03-19T05:31:39.811Z,3.20
2019-03-19T05:34:19.581Z,3.20
2019-03-19T05:36:59.264Z,3.30
2019-03-19T05:39:38.443Z,3.40
2019-03-19T05:42:18.271Z,3.40
2019-03-19T05:44:57.606Z,3.40
2019-03-19T05:47:40.232Z,3.40
2019-03-19T05:50:18.579Z,3.40
2019-03-19T05:52:58.009Z,3.40
2019-03-19T05:55:37.564Z,3.40
2019-03-19T05:58:16.760Z,3.30
2019-03-19T06:00:56.515Z,3.40
2019-03-19T06:03:39.528Z,3.40
2019-03-19T06:06:19.381Z,3.50
2019-03-19T06:08:58.855Z,3.60
2019-03-19T06:11:38.107Z,3.80
2019-03-19T06:14:17.735Z,3.90
2019-03-19T06:16:59.156Z,4.10
2019-03-19T06:19:39.031Z,4.30
2019-03-19T06:22:18.796Z,4.50
2019-03-19T06:24:58.828Z,4.40
2019-03-19T06:27:38.763Z,4.50
2019-03-19T06:30:21.776Z,4.50
2019-03-19T06:33:01.621Z,4.50
2019-03-19T06:35:41.800Z,4.50
2019-03-19T06:38:23.819Z,4.60
2019-03-19T06:41:06.011Z,4.80
2019-03-19T06:43:45.765Z,4.90
2019-03-19T06:46:25.627Z,5.00
2019-03-19T06:49:05.498Z,5.00
2019-03-19T06:51:48.065Z,4.90
2019-03-19T06:54:28.083Z,4.90
2019-03-19T06:57:09.753Z,5.00
2019-03-19T06:59:49.649Z,5.10
2019-03-19T07:02:29.578Z,5.10
2019-03-19T07:05:10.256Z,5.20
2019-03-19T07:07:50.302Z,5.40
2019-03-19T07:10:30.275Z,5.50
2019-03-19T07:13:10.151Z,5.40
2019-03-19T07:15:49.920Z,5.40
2019-03-19T07:18:29.585Z,5.40
2019-03-19T07:21:15.277Z,5.80
2019-03-19T07:23:56.559Z,6.00
2019-03-19T07:26:36.215Z,6.10
2019-03-19T07:29:16.026Z,6.10
2019-03-19T07:31:55.901Z,6.00
2019-03-19T07:34:35.855Z,5.70
2019-03-19T07:37:15.695Z,5.60
2019-03-19T07:39:55.775Z,5.80
2019-03-19T07:42:35.642Z,6.10
2019-03-19T07:45:18.640Z,7.00
2019-03-19T07:47:58.444Z,8.70
2019-03-19T07:50:38.317Z,9.00
2019-03-19T07:53:18.128Z,9.10
2019-03-19T07:55:58.058Z,8.80
2019-03-19T07:58:45.100Z,8.50
2019-03-19T08:01:19.390Z,8.10
2019-03-19T08:03:58.998Z,7.90
2019-03-19T08:06:38.684Z,7.60
2019-03-19T08:09:18.336Z,7.40
2019-03-19T08:12:00.616Z,7.10
2019-03-19T08:14:40.404Z,7.10
2019-03-19T08:17:20.413Z,7.00
2019-03-19T08:20:00.333Z,6.90
2019-03-19T08:22:40.095Z,6.70
2019-03-19T08:25:19.915Z,6.60
2019-03-19T08:27:59.886Z,6.60
2019-03-19T08:30:39.653Z,6.30
2019-03-19T08:33:19.310Z,6.00
2019-03-19T08:36:08.736Z,5.90
2019-03-19T08:38:40.754Z,5.80
2019-03-19T08:41:21.460Z,5.40
2019-03-19T08:44:01.457Z,5.10
2019-03-19T08:46:41.125Z,5.10
2019-03-19T08:49:24.153Z,5.30
2019-03-19T08:52:04.044Z,5.40
2019-03-19T08:54:43.866Z,5.80
2019-03-19T08:57:26.169Z,6.30
2019-03-19T09:00:12.534Z,6.80
2019-03-19T09:02:52.778Z,7.00
2019-03-19T09:05:32.530Z,7.30
2019-03-19T09:08:13.232Z,7.70
2019-03-19T09:10:53.003Z,8.00
2019-03-19T09:13:35.215Z,8.30
2019-03-19T09:16:14.921Z,8.80
2019-03-19T09:18:54.758Z,9.10
2019-03-19T09:21:35.680Z,9.40
2019-03-19T09:24:15.489Z,10.60
2019-03-19T09:26:56.773Z,12.10
2019-03-19T09:29:36.710Z,13.40
2019-03-19T09:32:16.230Z,13.50
2019-03-19T09:34:55.810Z,14.20
2019-03-19T09:37:35.688Z,13.60
2019-03-19T09:40:15.902Z,12.60
2019-03-19T09:42:58.207Z,11.60
2019-03-19T09:45:39.269Z,10.40
2019-03-19T09:48:19.402Z,9.40
2019-03-19T09:50:59.420Z,8.80
2019-03-19T09:53:39.522Z,8.40
2019-03-19T09:56:19.491Z,8.30
2019-03-19T09:58:59.501Z,8.10
2019-03-19T10:01:39.247Z,8.10
2019-03-19T10:04:19.276Z,8.30
2019-03-19T10:07:05.901Z,9.10
2019-03-19T10:09:40.491Z,11.10
2019-03-19T10:12:20.254Z,13.50
2019-03-19T10:14:59.862Z,14.30
2019-03-19T10:17:39.283Z,13.00
2019-03-19T10:20:19.133Z,12.30
2019-03-19T10:22:59.018Z,13.30
2019-03-19T10:25:39.069Z,13.00
2019-03-19T10:28:18.839Z,11.90
2019-03-19T10:30:58.898Z,10.50
2019-03-19T10:33:38.614Z,9.70
2019-03-19T10:36:18.356Z,9.20
2019-03-19T10:38:58.044Z,8.90
2019-03-19T10:41:37.996Z,8.70
2019-03-19T10:44:17.703Z,8.60
2019-03-19T10:46:57.546Z,9.30
2019-03-19T10:49:37.261Z,11.30
2019-03-19T10:52:17.261Z,14.50
2019-03-19T10:55:00.160Z,17.30
2019-03-19T10:57:43.578Z,19.40
2019-03-19T11:00:23.433Z,20.90
2019-03-19T11:03:06.124Z,22.50
2019-03-19T11:05:45.583Z,20.30
2019-03-19T11:08:25.535Z,17.50
2019-03-19T11:11:05.487Z,15.70
2019-03-19T11:13:45.109Z,14.80
2019-03-19T11:16:24.716Z,15.90
2019-03-19T11:19:04.513Z,17.00
2019-03-19T11:21:44.095Z,16.30
2019-03-19T11:24:23.464Z,18.40
2019-03-19T11:27:03.192Z,20.30
2019-03-19T11:29:46.051Z,19.50
2019-03-19T11:32:25.466Z,17.70
2019-03-19T11:35:09.926Z,16.10
2019-03-19T11:37:49.427Z,15.70
2019-03-19T11:40:30.206Z,17.90
2019-03-19T11:43:12.507Z,19.50
2019-03-19T11:45:52.322Z,18.90
2019-03-19T11:48:31.951Z,16.00
2019-03-19T11:51:12.627Z,13.70
2019-03-19T11:53:52.245Z,11.90
2019-03-19T11:56:33.015Z,11.20
2019-03-19T11:59:12.728Z,11.10
2019-03-19T12:01:54.313Z,11.80
2019-03-19T12:04:35.623Z,13.90
2019-03-19T12:07:15.090Z,16.00
2019-03-19T12:09:54.792Z,17.90
2019-03-19T12:12:34.973Z,19.50
2019-03-19T12:15:14.769Z,20.40
2019-03-19T12:17:54.531Z,19.40
2019-03-19T12:20:33.935Z,19.70
2019-03-19T12:23:13.504Z,21.40
2019-03-19T12:25:53.047Z,22.40
2019-03-19T12:28:39.521Z,20.30
2019-03-19T12:31:13.624Z,19.90
2019-03-19T12:33:53.197Z,20.40
2019-03-19T12:36:33.871Z,17.90
2019-03-19T12:39:13.357Z,15.10
2019-03-19T12:41:52.670Z,12.90
2019-03-19T12:44:32.181Z,12.50
2019-03-19T12:47:13.372Z,12.10
2019-03-19T12:49:53.461Z,12.60
2019-03-19T12:52:33.251Z,13.90
2019-03-19T12:55:15.637Z,15.60
2019-03-19T12:57:55.507Z,18.50
2019-03-19T13:00:35.237Z,18.80
2019-03-19T13:03:15.120Z,19.20
2019-03-19T13:05:54.875Z,20.00
2019-03-19T13:08:34.294Z,20.20
2019-03-19T13:11:13.652Z,18.70
2019-03-19T13:13:53.192Z,16.70
2019-03-19T13:16:32.935Z,15.00
2019-03-19T13:19:12.733Z,13.50
2019-03-19T13:21:52.742Z,13.00
2019-03-19T13:24:32.213Z,12.80
2019-03-19T13:27:11.956Z,12.20
2019-03-19T13:29:51.470Z,11.50
2019-03-19T13:32:31.058Z,10.90
2019-03-19T13:35:12.036Z,10.50
2019-03-19T13:37:53.738Z,10.50
2019-03-19T13:40:33.252Z,11.60
2019-03-19T13:43:13.478Z,12.70
2019-03-19T13:45:52.954Z,12.30
2019-03-19T13:48:33.145Z,11.40
2019-03-19T13:51:12.892Z,10.60
2019-03-19T13:53:52.860Z,10.20
2019-03-19T13:56:32.854Z,9.90
2019-03-19T13:59:13.297Z,9.60
2019-03-19T14:01:54.222Z,9.60
2019-03-19T14:04:34.038Z,9.40
2019-03-19T14:07:13.669Z,9.30
2019-03-19T14:09:53.568Z,9.30
2019-03-19T14:12:33.226Z,9.40
2019-03-19T14:15:15.381Z,9.80
2019-03-19T14:17:55.207Z,10.20
2019-03-19T14:20:35.395Z,10.20
2019-03-19T14:23:15.199Z,10.00
2019-03-19T14:25:54.951Z,9.80
2019-03-19T14:28:34.699Z,9.40
2019-03-19T14:31:14.747Z,9.10
2019-03-19T14:33:54.663Z,8.70
2019-03-19T14:36:35.572Z,8.60
2019-03-19T14:39:15.504Z,8.50
2019-03-19T14:41:55.405Z,8.60
2019-03-19T14:44:35.172Z,8.50
2019-03-19T14:47:15.287Z,8.50
2019-03-19T14:49:56.610Z,8.40
2019-03-19T14:52:36.694Z,8.30
2019-03-19T14:55:16.745Z,8.30
2019-03-19T14:57:56.627Z,8.30
2019-03-19T15:00:36.509Z,8.30
2019-03-19T15:03:16.802Z,8.30
2019-03-19T15:05:56.879Z,8.30
2019-03-19T15:08:36.947Z,8.40
2019-03-19T15:11:16.689Z,8.40
2019-03-19T15:13:56.611Z,8.40
2019-03-19T15:16:36.439Z,8.30
2019-03-19T15:19:16.423Z,8.20
2019-03-19T15:21:56.141Z,8.20
2019-03-19T15:24:35.887Z,8.20
2019-03-19T15:27:15.746Z,8.20
2019-03-19T15:29:55.914Z,8.10
2019-03-19T15:32:35.884Z,8.30
2019-03-19T15:35:15.972Z,8.40
2019-03-19T15:37:56.183Z,8.50
2019-03-19T15:40:36.421Z,8.60
2019-03-19T15:43:16.339Z,8.50
2019-03-19T15:45:58.633Z,8.50
2019-03-19T15:48:38.482Z,8.50
2019-03-19T15:51:18.696Z,8.50
2019-03-19T15:53:58.614Z,8.40
2019-03-19T15:56:38.525Z,8.50
2019-03-19T15:59:18.307Z,8.40
2019-03-19T16:01:58.701Z,8.20
2019-03-19T16:04:38.458Z,8.10
2019-03-19T16:07:18.508Z,7.90
2019-03-19T16:09:58.354Z,7.90
2019-03-19T16:12:38.548Z,7.80
2019-03-19T16:15:19.338Z,7.70
2019-03-19T16:17:59.288Z,7.50
2019-03-19T16:20:39.256Z,7.50
2019-03-19T16:23:19.374Z,7.50
2019-03-19T16:25:59.587Z,7.40
2019-03-19T16:28:39.455Z,7.40
2019-03-19T16:31:19.791Z,7.40
2019-03-19T16:33:59.777Z,7.40
2019-03-19T16:36:39.650Z,7.30
2019-03-19T16:39:19.574Z,7.30
2019-03-19T16:41:59.417Z,7.20
2019-03-19T16:44:39.409Z,7.30
2019-03-19T16:47:22.370Z,7.20
2019-03-19T16:50:02.324Z,7.20
2019-03-19T16:52:42.277Z,7.30
2019-03-19T16:55:22.963Z,7.30
2019-03-19T16:58:02.928Z,7.30
2019-03-19T17:00:42.752Z,7.30
2019-03-19T17:03:23.938Z,7.30
2019-03-19T17:06:04.566Z,7.30
2019-03-19T17:08:44.566Z,7.20
2019-03-19T17:11:24.573Z,7.10
2019-03-19T17:14:04.670Z,7.00
2019-03-19T17:16:44.655Z,6.90
2019-03-19T17:19:24.270Z,6.90
2019-03-19T17:22:04.202Z,6.80
2019-03-19T17:24:44.005Z,6.70
2019-03-19T17:27:25.105Z,6.60
2019-03-19T17:30:08.112Z,6.50
2019-03-19T17:32:47.897Z,6.50
2019-03-19T17:35:28.617Z,6.50
2019-03-19T17:38:09.324Z,6.40
2019-03-19T17:40:51.400Z,6.40
2019-03-19T17:43:32.898Z,6.60
2019-03-19T17:46:13.975Z,6.60
2019-03-19T17:48:54.643Z,6.50
2019-03-19T17:51:36.432Z,6.50
2019-03-19T17:54:16.772Z,6.50
2019-03-19T17:57:01.478Z,6.50
2019-03-19T17:59:41.505Z,6.50
2019-03-19T18:02:24.165Z,6.50
2019-03-19T18:05:06.259Z,6.50
2019-03-19T18:07:47.181Z,6.50
2019-03-19T18:10:32.849Z,6.50
2019-03-19T18:13:13.137Z,6.60
2019-03-19T18:15:55.807Z,5.40
2019-03-19T18:18:38.315Z,6.50
2019-03-19T18:21:18.765Z,6.40
2019-03-19T18:23:59.090Z,6.40
2019-03-19T18:26:40.609Z,6.40
2019-03-19T18:29:20.497Z,6.40
2019-03-19T18:32:01.498Z,6.30
2019-03-19T18:34:42.052Z,6.30
2019-03-19T18:37:22.863Z,6.40
2019-03-19T18:40:09.441Z,6.30
2019-03-19T18:42:52.232Z,6.30
2019-03-19T18:45:32.761Z,6.30
2019-03-19T18:48:13.446Z,6.30
2019-03-19T18:50:53.799Z,6.40
2019-03-19T18:53:35.331Z,6.40
2019-03-19T18:56:15.494Z,6.30
2019-03-19T18:58:55.696Z,6.30
2019-03-19T19:01:35.638Z,6.30
2019-03-19T19:04:16.018Z,6.30
2019-03-19T19:06:56.289Z,6.40
2019-03-19T19:09:36.868Z,6.50
2019-03-19T19:12:16.725Z,6.40
2019-03-19T19:14:58.468Z,6.30
2019-03-19T19:17:42.241Z,6.30
2019-03-19T19:20:23.602Z,6.20
2019-03-19T19:23:03.520Z,6.20
2019-03-19T19:25:43.683Z,6.20
2019-03-19T19:28:23.742Z,6.20
2019-03-19T19:31:04.154Z,6.30
2019-03-19T19:33:44.479Z,6.30
2019-03-19T19:36:24.727Z,6.30
2019-03-19T19:39:07.785Z,6.30
2019-03-19T19:41:49.118Z,6.30
2019-03-19T19:44:30.045Z,6.30
2019-03-19T19:47:17.962Z,6.40
2019-03-19T19:49:58.508Z,6.30
2019-03-19T19:52:38.950Z,6.30
2019-03-19T19:55:19.935Z,6.30
2019-03-19T19:58:02.821Z,6.30
2019-03-19T20:00:43.221Z,6.30
2019-03-19T20:03:23.881Z,6.30
2019-03-19T20:06:05.404Z,6.30
2019-03-19T20:08:46.592Z,6.30
2019-03-19T20:11:26.605Z,6.30
2019-03-19T20:14:07.915Z,6.30
2019-03-19T20:16:51.124Z,6.20
2019-03-19T20:19:32.367Z,6.20
2019-03-19T20:22:12.537Z,6.20
2019-03-19T20:24:53.541Z,6.30
2019-03-19T20:27:34.712Z,6.30
2019-03-19T20:30:17.594Z,6.30
2019-03-19T20:32:57.731Z,6.20
2019-03-19T20:35:37.991Z,6.20
2019-03-19T20:38:18.026Z,6.30
2019-03-19T20:40:58.504Z,6.30
2019-03-19T20:43:39.762Z,6.30
2019-03-19T20:46:19.583Z,6.30
2019-03-19T20:48:59.455Z,6.20
2019-03-19T20:51:39.934Z,6.20
2019-03-19T20:54:19.805Z,6.20
2019-03-19T20:57:00.901Z,6.30
2019-03-19T20:59:42.412Z,6.30
2019-03-19T21:02:25.619Z,6.30
2019-03-19T21:05:05.695Z,6.30
2019-03-19T21:07:45.926Z,6.20
2019-03-19T21:10:25.848Z,6.30
2019-03-19T21:13:07.195Z,6.30
2019-03-19T21:15:47.105Z,6.20
2019-03-19T21:18:27.058Z,6.20
2019-03-19T21:21:07.183Z,6.20
2019-03-19T21:23:49.385Z,6.30
2019-03-19T21:26:32.814Z,6.30
2019-03-19T21:29:12.617Z,6.30
2019-03-19T21:31:52.631Z,6.20
2019-03-19T21:34:32.868Z,6.20
2019-03-19T21:37:16.770Z,6.30
2019-03-19T21:39:56.967Z,4.70
2019-03-19T21:42:36.765Z,6.20
2019-03-19T21:45:17.467Z,6.30
2019-03-19T21:47:57.754Z,6.30
2019-03-19T21:50:37.950Z,6.30
2019-03-19T21:53:19.683Z,6.30
2019-03-19T21:55:59.853Z,6.30
2019-03-19T21:58:39.815Z,6.20
2019-03-19T22:01:19.975Z,6.20
2019-03-19T22:04:03.816Z,6.20
2019-03-19T22:06:44.248Z,6.20
2019-03-19T22:09:23.939Z,6.10
2019-03-19T22:12:04.103Z,6.10
2019-03-19T22:14:44.176Z,6.00
2019-03-19T22:17:24.202Z,5.90
2019-03-19T22:20:03.957Z,5.90
2019-03-19T22:22:45.015Z,5.90
2019-03-19T22:25:24.754Z,5.90
2019-03-19T22:28:04.872Z,5.80
2019-03-19T22:30:44.823Z,5.80
2019-03-19T22:33:24.607Z,5.70
2019-03-19T22:36:05.999Z,5.70
2019-03-19T22:38:47.338Z,5.60
2019-03-19T22:41:27.159Z,5.60
2019-03-19T22:44:07.147Z,5.70
2019-03-19T22:46:47.182Z,5.70
2019-03-19T22:49:27.148Z,5.70
2019-03-19T22:52:09.417Z,5.70
2019-03-19T22:54:49.823Z,5.70
2019-03-19T22:57:29.813Z,5.60
2019-03-19T23:00:27.419Z,5.50
2019-03-19T23:03:09.602Z,5.50
2019-03-19T23:05:51.568Z,5.50
2019-03-19T23:08:31.568Z,5.50
2019-03-19T23:11:11.571Z,5.60
2019-03-19T23:13:54.538Z,5.60
2019-03-19T23:16:34.174Z,5.60
2019-03-19T23:19:14.225Z,5.50
2019-03-19T23:21:54.279Z,5.50
2019-03-19T23:24:34.658Z,5.50
2019-03-19T23:27:14.666Z,5.40
2019-03-19T23:29:54.771Z,5.40
2019-03-19T23:32:35.130Z,5.60
2019-03-19T23:35:15.237Z,5.50
2019-03-19T23:37:55.242Z,5.60
2019-03-19T23:40:35.135Z,5.60
2019-03-19T23:43:15.118Z,5.70
2019-03-19T23:45:54.905Z,5.70
2019-03-19T23:48:34.822Z,5.60
2019-03-19T23:51:14.504Z,5.70
2019-03-19T23:53:54.482Z,5.60
2019-03-19T23:56:35.687Z,5.60
2019-03-19T23:59:15.478Z,5.60
